메인 페이지
METAR-TAF:

METAR-TAF

공항 :

플로리아노폴리스, 산타카타리나, 브라질

위도: 27-40S, 경도: 048-33W, 고도: 5m

현재 날씨관측

예보는 44분 전, 12:00시(UTC)에 발표되었습니다.
서북서2kt
온도 18°C
습도 73%
기압 1019 hPa
시정 10km 이상
고도 2000ft 상공 구름 보통

METAR: SBFL 221200Z 29002KT 9999 SCT020 18/13 Q1019

시각: 09:44 (12:44 UTC)

예보

예보는 3 시간 14분 전, 09:30시(UTC)에 발표되었습니다.
예보 대상 시간: 22일 12시부터 23일 12시까지 (UTC)
9kt
시정 10km 이상
고도 2000ft 상공 구름 보통
전환 중
22일 12시부터 22일 14시까지 (UTC)
남남동8kt
고도 3000ft 상공 구름 조금
전환 중
22일 22시부터 22일 24시까지 (UTC)
서북서5kt
고도 3000ft 상공 구름 보통
전환 중
23일 02시부터 2일 시까지 (UTC)
9kt

TAF: SBFL 220930Z 2212/2312 19009KT 9999 SCT020 TX20/2218Z TN16/2302Z BECMG 2212/2214 16008KT FEW030 BECMG 2222/2224 29005KT SCT030 BECMG 2302/2 304 36009KT RMK PER

4,000개 이상의 공항 관측 자료 및 예보 (METAR 및 TAF 보고).

지도상에서 검색 가능한 기상관측소가 노란 점과 빨간 점으로 표시되어 있습니다.

기상관측소 명을 보려면 표시 위로 마우스를 이동하세요.

날씨 관측과 예보를 보려면 클릭하세요.

지도 변경 : 확대하려면 엑스 표시가 있는 녹색 버튼, 축소하려면 빼기 표시가 있는 녹색 버튼, 다음 페이지의 지도를 보려면 녹색 화살표를 클릭하세요.


METAR-TAF: